Terminal Aerodrome Forecast
Issued by NWS Memphis, TN

Home | Current Version | Previous Version | Text Only | Print | Product List | Glossary On
Versions: 1 2 3 4 5 6 7 8 9 10 11 12 13 14 15 16 17 18
000
FTUS44 KMEG 040521
TAFJBR
TAF
KJBR 040521Z 0406/0506 VRB03KT P6SM SCT012 OVC050
      TEMPO 0406/0407 BKN012 OVC050
     FM040700 VRB03KT 3SM BR OVC006
     FM041400 VRB03KT 6SM BR BKN009 OVC020
     FM041600 12005KT P6SM BKN020 OVC150
     FM041800 18007KT P6SM VCTS SCT030CB OVC150
     FM050300 19003KT P6SM SCT030 OVC150=

USA.gov is the U.S. government's official web portal to all federal, state and local government web resources and services.